createdAt,value
2024-01-29T00:01:17.921Z,7.00
2024-01-29T00:03:47.705Z,7.32
2024-01-29T00:06:15.856Z,7.10
2024-01-29T00:08:43.812Z,6.93
2024-01-29T00:11:12.306Z,7.15
2024-01-29T00:13:40.456Z,7.28
2024-01-29T00:16:08.886Z,7.27
2024-01-29T00:18:36.947Z,6.88
2024-01-29T00:21:06.418Z,7.13
2024-01-29T00:23:34.355Z,7.13
2024-01-29T00:26:02.398Z,6.97
2024-01-29T00:28:30.369Z,7.55
2024-01-29T00:30:58.300Z,7.90
2024-01-29T00:33:26.373Z,7.30
2024-01-29T00:35:54.533Z,7.80
2024-01-29T00:38:23.845Z,7.30
2024-01-29T00:40:51.784Z,7.32
2024-01-29T00:43:19.677Z,7.88
2024-01-29T00:45:48.189Z,7.88
2024-01-29T00:48:16.249Z,8.23
2024-01-29T00:50:44.238Z,7.30
2024-01-29T00:53:12.192Z,7.60
2024-01-29T00:55:43.969Z,7.75
2024-01-29T00:58:11.994Z,7.80
2024-01-29T01:00:40.977Z,7.65
2024-01-29T01:03:08.944Z,7.70
2024-01-29T01:05:37.050Z,7.65
2024-01-29T01:08:05.754Z,7.93
2024-01-29T01:10:34.025Z,7.90
2024-01-29T01:13:04.316Z,7.10
2024-01-29T01:15:32.444Z,7.80
2024-01-29T01:18:00.498Z,7.40
2024-01-29T01:20:28.462Z,7.57
2024-01-29T01:22:56.384Z,7.40
2024-01-29T01:25:24.786Z,7.55
2024-01-29T01:27:55.074Z,6.80
2024-01-29T01:30:24.789Z,7.35
2024-01-29T01:32:52.840Z,7.22
2024-01-29T01:35:20.819Z,6.82
2024-01-29T01:37:48.732Z,7.50
2024-01-29T01:40:16.756Z,7.32
2024-01-29T01:42:45.608Z,7.38
2024-01-29T01:45:14.098Z,7.18
2024-01-29T01:47:43.605Z,7.75
2024-01-29T01:50:13.416Z,7.43
2024-01-29T01:52:42.286Z,7.18
2024-01-29T01:55:10.639Z,7.50
2024-01-29T01:57:41.389Z,6.97
2024-01-29T02:00:10.680Z,7.93
2024-01-29T02:02:38.765Z,7.30
2024-01-29T02:05:10.656Z,7.38
2024-01-29T02:07:38.864Z,7.25
2024-01-29T02:10:15.252Z,7.93
2024-01-29T02:12:43.199Z,7.15
2024-01-29T02:15:11.467Z,7.60
2024-01-29T02:17:39.462Z,7.78
2024-01-29T02:20:10.146Z,7.50
2024-01-29T02:22:43.565Z,7.38
2024-01-29T02:25:16.415Z,6.90
2024-01-29T02:27:44.473Z,7.20
2024-01-29T02:30:14.656Z,7.50
2024-01-29T02:32:43.063Z,7.17
2024-01-29T02:35:13.013Z,7.80
2024-01-29T02:37:42.365Z,8.00
2024-01-29T02:40:11.383Z,7.82
2024-01-29T02:42:39.490Z,7.45
2024-01-29T02:45:08.055Z,7.32
2024-01-29T02:47:36.098Z,7.88
2024-01-29T02:50:04.253Z,7.37
2024-01-29T02:52:33.314Z,7.60
2024-01-29T02:55:02.748Z,8.25
2024-01-29T02:57:30.760Z,7.88
2024-01-29T02:59:58.694Z,7.87
2024-01-29T03:02:26.610Z,7.70
2024-01-29T03:04:54.839Z,7.82
2024-01-29T03:07:22.810Z,7.93
2024-01-29T03:09:50.849Z,7.30
2024-01-29T03:12:20.145Z,7.60
2024-01-29T03:14:48.673Z,7.93
2024-01-29T03:17:16.745Z,8.02
2024-01-29T03:19:44.765Z,7.93
2024-01-29T03:22:12.819Z,7.43
2024-01-29T03:24:40.792Z,8.20
2024-01-29T03:27:08.761Z,7.30
2024-01-29T03:29:38.116Z,8.00
2024-01-29T03:32:07.030Z,7.63
2024-01-29T03:34:35.177Z,8.00
2024-01-29T03:37:03.338Z,8.40
2024-01-29T03:39:31.455Z,8.00
2024-01-29T03:41:59.436Z,8.10
2024-01-29T03:44:27.439Z,8.18
2024-01-29T03:46:56.754Z,7.95
2024-01-29T03:49:25.186Z,7.55
2024-01-29T03:51:53.315Z,8.05
2024-01-29T03:54:21.313Z,8.38
2024-01-29T03:56:49.293Z,8.23
2024-01-29T03:59:17.238Z,8.10
2024-01-29T04:01:45.391Z,7.80
2024-01-29T04:04:14.972Z,7.35
2024-01-29T04:06:45.066Z,8.13
2024-01-29T04:09:14.081Z,7.68
2024-01-29T04:11:42.573Z,7.47
2024-01-29T04:14:10.550Z,8.15
2024-01-29T04:16:38.491Z,7.70
2024-01-29T04:19:06.512Z,8.27
2024-01-29T04:21:35.894Z,8.50
2024-01-29T04:24:03.950Z,8.07
2024-01-29T04:26:31.869Z,8.05
2024-01-29T04:28:59.853Z,8.02
2024-01-29T04:31:27.901Z,8.18
2024-01-29T04:33:55.910Z,8.20
2024-01-29T04:36:23.915Z,7.35
2024-01-29T04:38:53.195Z,7.65
2024-01-29T04:41:22.033Z,7.72
2024-01-29T04:43:50.342Z,8.60
2024-01-29T04:46:18.563Z,7.85
2024-01-29T04:48:46.619Z,7.50
2024-01-29T04:51:14.636Z,7.70
2024-01-29T04:53:42.620Z,7.85
2024-01-29T04:56:12.140Z,7.63
2024-01-29T04:58:40.182Z,7.97
2024-01-29T05:01:08.182Z,7.65
2024-01-29T05:03:36.181Z,7.90
2024-01-29T05:06:04.220Z,8.30
2024-01-29T05:08:32.298Z,7.90
2024-01-29T05:11:00.258Z,7.95
2024-01-29T05:13:29.546Z,8.25
2024-01-29T05:15:57.499Z,8.30
2024-01-29T05:18:25.952Z,8.57
2024-01-29T05:20:53.909Z,8.53
2024-01-29T05:23:21.961Z,8.43
2024-01-29T05:25:49.930Z,8.30
2024-01-29T05:28:17.937Z,8.35
2024-01-29T05:30:47.419Z,8.35
2024-01-29T05:33:25.219Z,8.07
2024-01-29T05:35:54.904Z,8.27
2024-01-29T05:38:22.827Z,8.15
2024-01-29T05:40:50.764Z,7.93
2024-01-29T05:43:18.719Z,8.57
2024-01-29T05:45:48.578Z,8.40
2024-01-29T05:48:16.782Z,8.82
2024-01-29T05:50:44.792Z,8.95
2024-01-29T05:53:12.772Z,8.43
2024-01-29T05:55:40.762Z,8.80
2024-01-29T05:58:08.870Z,8.52
2024-01-29T06:00:36.934Z,8.88
2024-01-29T06:03:06.837Z,8.35
2024-01-29T06:05:34.951Z,8.65
2024-01-29T06:08:02.990Z,8.35
2024-01-29T06:10:31.063Z,8.98
2024-01-29T06:12:59.079Z,8.07
2024-01-29T06:15:27.146Z,8.70
2024-01-29T06:17:55.227Z,9.00
2024-01-29T06:20:24.874Z,8.32
2024-01-29T06:22:53.782Z,8.52
2024-01-29T06:25:22.085Z,8.15
2024-01-29T06:27:50.342Z,9.00
2024-01-29T06:30:18.532Z,8.98
2024-01-29T06:32:47.221Z,8.73
2024-01-29T06:35:16.553Z,9.25
2024-01-29T06:37:45.867Z,9.18
2024-01-29T06:40:14.720Z,8.90
2024-01-29T06:42:42.773Z,9.00
2024-01-29T06:45:11.636Z,9.02
2024-01-29T06:47:40.867Z,9.07
2024-01-29T06:50:11.903Z,9.60
2024-01-29T06:52:41.496Z,9.23
2024-01-29T06:55:12.452Z,9.13
2024-01-29T06:57:40.489Z,9.32
2024-01-29T07:00:10.052Z,9.90
2024-01-29T07:02:38.230Z,9.13
2024-01-29T07:05:08.898Z,9.70
2024-01-29T07:07:37.226Z,9.35
2024-01-29T07:10:05.616Z,9.50
2024-01-29T07:12:35.567Z,10.25
2024-01-29T07:15:03.924Z,10.02
2024-01-29T07:17:31.870Z,10.13
2024-01-29T07:20:00.178Z,9.80
2024-01-29T07:22:28.359Z,9.70
2024-01-29T07:24:56.368Z,10.10
2024-01-29T07:27:24.483Z,10.55
2024-01-29T07:29:53.843Z,10.10
2024-01-29T07:32:21.866Z,9.30
2024-01-29T07:34:53.107Z,10.03
2024-01-29T07:37:21.362Z,9.45
2024-01-29T07:39:49.385Z,9.90
2024-01-29T07:42:18.045Z,10.40
2024-01-29T07:44:46.112Z,9.93
2024-01-29T07:47:18.743Z,10.07
2024-01-29T07:49:47.949Z,10.20
2024-01-29T07:52:15.990Z,10.18
2024-01-29T07:54:44.046Z,10.00
2024-01-29T07:57:12.075Z,10.15
2024-01-29T07:59:40.917Z,9.75
2024-01-29T08:02:10.821Z,11.00
2024-01-29T08:04:40.633Z,10.27
2024-01-29T08:07:08.754Z,10.15
2024-01-29T08:09:37.057Z,10.00
2024-01-29T08:12:06.415Z,10.00
2024-01-29T08:14:34.569Z,10.50
2024-01-29T08:17:02.809Z,9.38
2024-01-29T08:19:31.021Z,9.77
2024-01-29T08:22:00.560Z,10.38
2024-01-29T08:24:28.688Z,10.38
2024-01-29T08:26:56.793Z,10.55
2024-01-29T08:29:24.842Z,10.20
2024-01-29T08:31:53.584Z,10.45
2024-01-29T08:34:22.033Z,10.23
2024-01-29T08:36:50.297Z,10.73
2024-01-29T08:39:20.565Z,11.37
2024-01-29T08:41:51.684Z,10.85
2024-01-29T08:44:21.902Z,10.55
2024-01-29T08:46:49.976Z,10.63
2024-01-29T08:49:18.006Z,11.35
2024-01-29T08:51:46.911Z,10.60
2024-01-29T08:54:15.019Z,11.05
2024-01-29T08:56:44.430Z,11.13
2024-01-29T08:59:13.686Z,11.02
2024-01-29T09:01:42.082Z,10.52
2024-01-29T09:04:10.391Z,10.15
2024-01-29T09:06:38.630Z,9.98
2024-01-29T09:09:06.678Z,11.43
2024-01-29T09:11:34.758Z,10.88
2024-01-29T09:14:04.166Z,10.35
2024-01-29T09:16:32.589Z,11.02
2024-01-29T09:19:00.807Z,10.65
2024-01-29T09:21:32.205Z,10.90
2024-01-29T09:24:00.235Z,11.70
2024-01-29T09:26:28.408Z,10.60
2024-01-29T09:28:56.487Z,10.90
2024-01-29T09:31:27.165Z,11.00
2024-01-29T09:33:55.443Z,11.45
2024-01-29T09:36:23.553Z,11.15
2024-01-29T09:38:51.666Z,10.60
2024-01-29T09:41:19.860Z,10.70
2024-01-29T09:43:49.163Z,11.13
2024-01-29T09:46:17.893Z,11.23
2024-01-29T09:48:48.141Z,11.15
2024-01-29T09:51:17.439Z,10.53
2024-01-29T09:53:46.484Z,10.93
2024-01-29T09:56:14.815Z,11.70
2024-01-29T09:58:42.892Z,11.00
2024-01-29T10:01:12.593Z,11.48
2024-01-29T10:03:41.060Z,10.45
2024-01-29T10:06:12.232Z,11.10
2024-01-29T10:08:41.050Z,11.80
2024-01-29T10:11:15.343Z,11.68
2024-01-29T10:13:43.788Z,10.80
2024-01-29T10:16:11.985Z,11.52
2024-01-29T10:18:40.176Z,11.30
2024-01-29T10:21:10.148Z,11.05
2024-01-29T10:23:38.177Z,11.15
2024-01-29T10:26:06.687Z,11.20
2024-01-29T10:28:34.740Z,10.88
2024-01-29T10:31:02.826Z,11.20
2024-01-29T10:33:31.143Z,10.95
2024-01-29T10:36:03.036Z,11.33
2024-01-29T10:38:34.792Z,10.90
2024-01-29T10:41:04.383Z,11.40
2024-01-29T10:43:38.881Z,11.45
2024-01-29T10:46:10.060Z,11.02
2024-01-29T10:48:39.178Z,10.90
2024-01-29T10:51:08.319Z,11.93
2024-01-29T10:53:38.686Z,11.40
2024-01-29T10:56:07.735Z,12.32
2024-01-29T10:58:36.146Z,12.23
2024-01-29T11:01:05.583Z,11.97
2024-01-29T11:03:34.266Z,13.07
2024-01-29T11:06:08.377Z,11.95
2024-01-29T11:08:40.578Z,12.40
2024-01-29T11:11:10.209Z,13.00
2024-01-29T11:13:38.630Z,13.18
2024-01-29T11:16:08.514Z,14.27
2024-01-29T11:18:37.652Z,12.65
2024-01-29T11:21:06.234Z,13.75
2024-01-29T11:23:44.779Z,13.68
2024-01-29T11:26:15.747Z,13.95
2024-01-29T11:28:44.014Z,14.07
2024-01-29T11:31:13.492Z,12.77
2024-01-29T11:33:42.260Z,13.45
2024-01-29T11:36:13.896Z,14.00
2024-01-29T11:38:43.310Z,13.50
2024-01-29T11:41:11.422Z,13.40
2024-01-29T11:43:45.001Z,13.55
2024-01-29T11:46:16.437Z,13.57
2024-01-29T11:48:44.755Z,13.27
2024-01-29T11:51:12.912Z,13.02
2024-01-29T11:53:40.963Z,12.50
2024-01-29T11:56:10.374Z,13.18
2024-01-29T11:58:38.478Z,11.52
2024-01-29T12:01:06.840Z,11.25
2024-01-29T12:03:37.350Z,11.60
2024-01-29T12:06:06.329Z,11.23
2024-01-29T12:08:34.605Z,11.13
2024-01-29T12:11:03.971Z,11.25
2024-01-29T12:13:33.706Z,10.90
2024-01-29T12:16:02.746Z,11.60
2024-01-29T12:18:31.836Z,11.40
2024-01-29T12:21:00.357Z,11.38
2024-01-29T12:23:28.548Z,10.45
2024-01-29T12:25:58.925Z,10.80
2024-01-29T12:28:28.802Z,10.70
2024-01-29T12:31:00.681Z,10.98
2024-01-29T12:33:32.512Z,10.23
2024-01-29T12:36:12.585Z,10.23
2024-01-29T12:38:40.938Z,10.60
2024-01-29T12:41:09.203Z,10.57
2024-01-29T12:43:37.568Z,11.07
2024-01-29T12:46:08.189Z,11.10
2024-01-29T12:48:36.399Z,11.25
2024-01-29T12:51:05.415Z,11.33
2024-01-29T12:53:33.934Z,10.70
2024-01-29T12:56:02.645Z,10.85
2024-01-29T12:58:30.653Z,10.20
2024-01-29T13:00:58.815Z,10.15
2024-01-29T13:03:29.268Z,10.60
2024-01-29T13:05:58.821Z,11.07
2024-01-29T13:08:28.790Z,10.65
2024-01-29T13:10:57.121Z,10.45
2024-01-29T13:13:25.493Z,10.32
2024-01-29T13:15:54.398Z,10.80
2024-01-29T13:18:23.049Z,11.02
2024-01-29T13:20:52.893Z,10.93
2024-01-29T13:23:20.915Z,11.07
2024-01-29T13:25:49.624Z,10.55
2024-01-29T13:28:17.771Z,11.07
2024-01-29T13:30:45.917Z,10.77
2024-01-29T13:33:14.030Z,10.93
2024-01-29T13:35:42.341Z,10.68
2024-01-29T13:38:11.773Z,10.43
2024-01-29T13:40:39.846Z,10.32
2024-01-29T13:43:08.589Z,10.82
2024-01-29T13:45:37.077Z,10.63
2024-01-29T13:48:06.063Z,11.45
2024-01-29T13:50:34.512Z,10.35
2024-01-29T13:53:02.524Z,10.27
2024-01-29T13:55:31.929Z,11.18
2024-01-29T13:58:00.053Z,10.70
2024-01-29T14:00:28.144Z,11.68
2024-01-29T14:02:56.254Z,11.67
2024-01-29T14:05:24.408Z,11.88
2024-01-29T14:07:52.464Z,11.90
2024-01-29T14:10:20.635Z,12.55
2024-01-29T14:12:50.272Z,11.75
2024-01-29T14:15:18.838Z,12.25
2024-01-29T14:17:47.033Z,11.82
2024-01-29T14:20:15.439Z,12.00
2024-01-29T14:22:43.872Z,12.60
2024-01-29T14:25:12.049Z,12.00
2024-01-29T14:27:40.215Z,12.52
2024-01-29T14:30:15.461Z,12.20
2024-01-29T14:32:43.612Z,12.20
2024-01-29T14:35:13.187Z,12.25
2024-01-29T14:37:42.633Z,12.18
2024-01-29T14:40:11.302Z,12.30
2024-01-29T14:42:40.975Z,12.00
2024-01-29T14:45:10.647Z,11.18
2024-01-29T14:47:38.891Z,11.05
2024-01-29T14:50:15.949Z,10.35
2024-01-29T14:52:44.012Z,10.82
2024-01-29T14:55:12.739Z,10.77
2024-01-29T14:57:41.354Z,10.43
2024-01-29T15:00:17.192Z,10.32
2024-01-29T15:02:45.204Z,10.40
2024-01-29T15:05:14.205Z,11.48
2024-01-29T15:07:42.651Z,11.38
2024-01-29T15:10:12.857Z,12.10
2024-01-29T15:12:42.706Z,11.45
2024-01-29T15:15:15.407Z,12.90
2024-01-29T15:17:43.575Z,11.45
2024-01-29T15:20:13.279Z,11.70
2024-01-29T15:22:41.591Z,11.27
2024-01-29T15:25:10.969Z,11.13
2024-01-29T15:27:39.281Z,11.93
2024-01-29T15:30:10.763Z,11.65
2024-01-29T15:32:40.452Z,11.18
2024-01-29T15:35:12.338Z,11.20
2024-01-29T15:37:40.579Z,11.57
2024-01-29T15:40:12.102Z,11.00
2024-01-29T15:42:41.480Z,11.30
2024-01-29T15:45:15.455Z,10.70
2024-01-29T15:47:45.169Z,11.95
2024-01-29T15:50:13.793Z,11.53
2024-01-29T15:52:41.833Z,11.53
2024-01-29T15:55:11.564Z,11.10
2024-01-29T15:57:39.667Z,10.80
2024-01-29T16:00:11.229Z,11.43
2024-01-29T16:02:39.280Z,10.05
2024-01-29T16:05:09.806Z,10.77
2024-01-29T16:07:38.359Z,11.18
2024-01-29T16:10:07.640Z,10.75
2024-01-29T16:12:35.716Z,11.63
2024-01-29T16:15:03.791Z,11.57
2024-01-29T16:17:31.938Z,11.40
2024-01-29T16:20:00.143Z,11.20
2024-01-29T16:22:29.796Z,11.98
2024-01-29T16:24:57.809Z,11.75
2024-01-29T16:27:26.299Z,12.73
2024-01-29T16:29:55.894Z,12.07
2024-01-29T16:32:24.012Z,12.27
2024-01-29T16:34:52.095Z,11.63
2024-01-29T16:37:20.243Z,11.82
2024-01-29T16:39:49.764Z,12.38
2024-01-29T16:42:17.839Z,12.70
2024-01-29T16:44:47.998Z,13.27
2024-01-29T16:47:16.062Z,12.38
2024-01-29T16:49:44.425Z,12.90
2024-01-29T16:52:12.614Z,12.93
2024-01-29T16:54:40.746Z,13.68
2024-01-29T16:57:10.590Z,13.63
2024-01-29T16:59:39.857Z,13.00
2024-01-29T17:02:08.275Z,13.27
2024-01-29T17:04:37.086Z,13.68
2024-01-29T17:07:05.863Z,13.43
2024-01-29T17:09:34.318Z,12.87
2024-01-29T17:12:02.455Z,12.63
2024-01-29T17:14:31.926Z,12.23
2024-01-29T17:17:00.056Z,12.70
2024-01-29T17:19:28.168Z,12.40
2024-01-29T17:21:56.392Z,13.00
2024-01-29T17:24:26.873Z,13.18
2024-01-29T17:26:56.680Z,13.27
2024-01-29T17:29:24.789Z,12.70
2024-01-29T17:31:54.150Z,14.35
2024-01-29T17:34:22.334Z,13.57
2024-01-29T17:36:51.417Z,14.45
2024-01-29T17:39:19.563Z,14.07
2024-01-29T17:41:47.621Z,13.55
2024-01-29T17:44:15.656Z,13.63
2024-01-29T17:46:43.769Z,13.88
2024-01-29T17:49:13.255Z,13.73
2024-01-29T17:51:42.737Z,14.63
2024-01-29T17:54:10.799Z,14.13
2024-01-29T17:56:39.452Z,14.32
2024-01-29T17:59:08.006Z,13.40
2024-01-29T18:01:36.672Z,14.23
2024-01-29T18:04:05.059Z,15.02
2024-01-29T18:06:34.496Z,15.75
2024-01-29T18:09:02.527Z,15.55
2024-01-29T18:11:30.528Z,16.90
2024-01-29T18:13:58.517Z,17.10
2024-01-29T18:16:27.077Z,15.90
2024-01-29T18:18:56.436Z,16.80
2024-01-29T18:21:24.511Z,15.57
2024-01-29T18:23:54.103Z,14.63
2024-01-29T18:26:22.093Z,15.52
2024-01-29T18:28:50.167Z,15.15
2024-01-29T18:31:18.943Z,15.50
2024-01-29T18:33:47.611Z,14.63
2024-01-29T18:36:18.810Z,16.05
2024-01-29T18:38:46.996Z,15.05
2024-01-29T18:41:21.440Z,15.50
2024-01-29T18:43:49.719Z,15.52
2024-01-29T18:46:18.271Z,16.05
2024-01-29T18:48:48.872Z,15.93
2024-01-29T18:51:25.627Z,15.70
2024-01-29T18:53:55.133Z,15.95
2024-01-29T18:56:24.689Z,15.15
2024-01-29T18:58:53.311Z,14.65
2024-01-29T19:01:22.146Z,14.73
2024-01-29T19:03:50.440Z,14.07
2024-01-29T19:06:18.876Z,14.75
2024-01-29T19:08:47.593Z,14.60
2024-01-29T19:11:15.677Z,14.48
2024-01-29T19:13:46.212Z,14.25
2024-01-29T19:16:14.376Z,14.00
2024-01-29T19:18:42.494Z,14.52
2024-01-29T19:21:11.805Z,14.43
2024-01-29T19:23:40.594Z,14.23
2024-01-29T19:26:11.214Z,14.30
2024-01-29T19:28:39.832Z,13.93
2024-01-29T19:31:09.462Z,14.50
2024-01-29T19:33:37.761Z,14.48
2024-01-29T19:36:06.447Z,14.27
2024-01-29T19:38:34.464Z,14.48
2024-01-29T19:41:02.474Z,14.50
2024-01-29T19:43:30.556Z,13.98
2024-01-29T19:45:59.200Z,14.38
2024-01-29T19:48:28.813Z,14.10
2024-01-29T19:50:56.843Z,14.60
2024-01-29T19:53:26.294Z,14.40
2024-01-29T19:55:54.351Z,13.53
2024-01-29T19:58:22.484Z,14.90
2024-01-29T20:00:50.672Z,13.50
2024-01-29T20:03:18.679Z,15.07
2024-01-29T20:05:48.882Z,15.43
2024-01-29T20:08:18.159Z,14.35
2024-01-29T20:10:49.131Z,14.63
2024-01-29T20:13:17.215Z,14.65
2024-01-29T20:15:45.366Z,15.15
2024-01-29T20:18:13.486Z,14.53
2024-01-29T20:20:41.999Z,14.75
2024-01-29T20:23:11.373Z,14.43
2024-01-29T20:25:39.544Z,15.27
2024-01-29T20:28:08.165Z,15.85
2024-01-29T20:30:36.238Z,14.67
2024-01-29T20:33:04.780Z,14.85
2024-01-29T20:35:32.832Z,14.02
2024-01-29T20:38:01.156Z,14.53
2024-01-29T20:40:32.078Z,13.80
2024-01-29T20:43:02.170Z,14.37
2024-01-29T20:45:31.080Z,14.23
2024-01-29T20:47:59.200Z,14.48
2024-01-29T20:50:27.279Z,14.50
2024-01-29T20:52:55.286Z,14.93
2024-01-29T20:55:24.232Z,14.20
2024-01-29T20:57:53.927Z,14.18
2024-01-29T21:00:22.120Z,14.57
2024-01-29T21:02:50.093Z,14.70
2024-01-29T21:05:22.047Z,14.10
2024-01-29T21:07:50.541Z,14.68
2024-01-29T21:10:18.869Z,14.07
2024-01-29T21:12:47.409Z,14.70
2024-01-29T21:15:19.785Z,15.00
2024-01-29T21:17:48.154Z,14.70
2024-01-29T21:20:16.321Z,14.75
2024-01-29T21:22:44.308Z,14.03
2024-01-29T21:25:12.640Z,14.02
2024-01-29T21:27:41.449Z,14.52
2024-01-29T21:30:18.730Z,13.90
2024-01-29T21:32:47.091Z,14.27
2024-01-29T21:35:15.840Z,14.37
2024-01-29T21:37:43.875Z,14.93
2024-01-29T21:40:13.917Z,15.25
2024-01-29T21:42:42.362Z,15.70
2024-01-29T21:45:11.036Z,14.85
2024-01-29T21:47:40.629Z,15.23
2024-01-29T21:50:09.688Z,16.43
2024-01-29T21:52:37.747Z,15.27
2024-01-29T21:55:09.197Z,15.48
2024-01-29T21:57:37.693Z,15.10
2024-01-29T22:00:06.711Z,15.70
2024-01-29T22:02:37.269Z,14.75
2024-01-29T22:05:09.257Z,15.63
2024-01-29T22:07:37.998Z,15.77
2024-01-29T22:10:11.188Z,15.57
2024-01-29T22:12:42.518Z,15.32
2024-01-29T22:15:15.804Z,15.20
2024-01-29T22:17:44.097Z,14.40
2024-01-29T22:20:14.346Z,14.90
2024-01-29T22:22:43.233Z,15.17
2024-01-29T22:25:12.167Z,15.32
2024-01-29T22:27:40.336Z,15.93
2024-01-29T22:30:09.348Z,15.00
2024-01-29T22:32:37.364Z,14.82
2024-01-29T22:35:05.786Z,14.20
2024-01-29T22:37:36.247Z,14.07
2024-01-29T22:40:05.767Z,15.50
2024-01-29T22:42:34.260Z,14.05
2024-01-29T22:45:02.251Z,14.40
2024-01-29T22:47:31.991Z,14.48
2024-01-29T22:50:01.218Z,13.57
2024-01-29T22:52:29.318Z,14.40
2024-01-29T22:54:58.687Z,14.18
2024-01-29T22:57:26.657Z,13.30
2024-01-29T22:59:54.631Z,13.38
2024-01-29T23:02:53.654Z,12.90
2024-01-29T23:05:51.329Z,13.10
2024-01-29T23:08:28.718Z,13.48
2024-01-29T23:10:58.043Z,13.20
2024-01-29T23:13:26.047Z,13.75
2024-01-29T23:15:54.296Z,12.75
2024-01-29T23:18:22.848Z,12.95
2024-01-29T23:20:50.958Z,12.70
2024-01-29T23:23:18.985Z,12.68
2024-01-29T23:25:46.927Z,12.20
2024-01-29T23:28:16.387Z,11.65
2024-01-29T23:30:44.431Z,13.13
2024-01-29T23:33:12.668Z,12.50
2024-01-29T23:35:40.751Z,12.25
2024-01-29T23:38:08.996Z,12.13
2024-01-29T23:40:37.038Z,11.85
2024-01-29T23:43:06.073Z,12.57
2024-01-29T23:45:35.529Z,12.30
2024-01-29T23:48:03.530Z,11.60
2024-01-29T23:50:31.507Z,12.35
2024-01-29T23:52:59.494Z,11.50
2024-01-29T23:55:27.741Z,11.55
2024-01-29T23:57:55.850Z,11.32
